Main page
METAR-TAF:

METAR-TAF

Airports :

Mehrabad International Airport

Tehran, Iran

latitude: 35-41N, longitude: 051-21E, elevation: 1204 m

Current weather observation

The report was made 29 minutes ago, at 23:00 UTC
Wind 6 kt from the Northwest
Temperature 2°C
Humidity 44%
Pressure 1018 hPa
Visibility 10 km or more
no clouds below 1500 m and no cumulonimbus

METAR: OIII 212300Z 32006KT CAVOK 02/M09 Q1018 A3007

Time: 02:59 (23:29 UTC)

Forecast

The report was made 5 hours and 59 minutes ago, at 17:30 UTC
Forecast valid from 21 at 18 UTC to 22 at 24 UTC
Wind 6 kt from the South/Southwest
Visibility: 7000 m

TAF: OIII 211730Z 2118/2224 20006KT 7000 NSC

Weather observations and forecasts of more than 4000 airports (METAR and TAF reports).

The available stations are represented by yellow and red dots on the map.

Hover mouse over dot to see the name of the station.

Then click to see weather observations and forecasts.

To change the map : click on the green buttons with a black cross to zoom in, on the green button with a dash to zoom out, or on the green arrows for adjacent maps.


METAR-TAF: